Flight Track Log - Related Links

Times and Time Zones

All times are in EDT time to prevent confusion due to time zone crossing. See the EJA749P flight status page for this flight to view local times or setup timezone preferences in your user account.

Time Position Orientation Groundspeed Altitude Reporting Facility
EDT Latitude Longitude Course Direction KTS MPH feet Rate Location/Type
Fri 07:22:35 PM 44.9214 -92.9756 54° Northeast 221 254 2,500  Level Minneapolis Center
Fri 07:23:37 PM 44.9853 -92.9517 15° North 218 251 4,200 1,839 Climbing Minneapolis Center
Fri 07:24:39 PM 45.0269 -93.0233 309° West 241 277 6,300 2,710 Climbing Minneapolis Center
Fri 07:25:41 PM 45.0667 -93.1100 303° West 262 302 9,800 2,758 Climbing Minneapolis Center
Fri 07:26:43 PM 45.0603 -93.2206 265° West 289 333 12,000 2,081 Climbing Minneapolis Center
Fri 07:27:00 PM 45.0020 -93.9731 281° West  Level FlightAware Approximate
Fri 07:27:45 PM 45.0544 -93.3481 266° West 331 381 14,100  Level Minneapolis Center
Fri 07:28:48 PM 45.0453 -93.5119 266° West 351 404 17,000 2,544 Climbing Minneapolis Center
Fri 07:29:50 PM 45.0367 -93.6536 265° West 362 417 19,400 2,323 Climbing Minneapolis Center
Fri 07:30:52 PM 45.0292 -93.7953 266° West 362 417 21,800 1,742 Climbing Minneapolis Center
Fri 07:31:54 PM 45.0211 -93.9381 265° West 364 419 23,000 1,597 Climbing Minneapolis Center
Fri 07:32:56 PM 45.0328 -94.0886 276° West 384 442 25,100 2,323 Climbing Minneapolis Center
Fri 07:33:58 PM 45.0589 -94.2558 283° West 368 423 27,800 1,403 Climbing Minneapolis Center
Fri 07:35:00 PM 45.0808 -94.4003 282° West 372 428 28,000 97 Climbing Minneapolis Center
Fri 07:36:02 PM 45.1011 -94.5542 281° West 391 450 28,000  Level Minneapolis Center
Fri 07:37:05 PM 45.1161 -94.7256 277° West 401 461 28,000  Level Minneapolis Center
Fri 07:38:07 PM 45.1319 -94.8850 278° West 406 467 28,000  Level Minneapolis Center
Fri 07:39:09 PM 45.1469 -95.0450 278° West 409 471 28,000  Level Minneapolis Center
Fri 07:40:11 PM 45.1639 -95.2064 279° West 411 473 28,000  Level Minneapolis Center
Fri 07:41:13 PM 45.1819 -95.4006 278° West 414 476 28,000  Level Minneapolis Center
Fri 07:42:15 PM 45.1958 -95.5597 277° West 413 475 28,000  Level Minneapolis Center
Fri 07:43:17 PM 45.2106 -95.7217 277° West 413 475 28,000  Level Minneapolis Center
Fri 07:44:20 PM 45.2256 -95.8817 278° West 413 475 28,000  Level Minneapolis Center
Fri 07:45:22 PM 45.2389 -96.0439 277° West 413 475 28,000  Level Minneapolis Center
Fri 07:46:24 PM 45.2556 -96.2367 277° West 414 476 28,000  Level Minneapolis Center
Fri 07:47:26 PM 45.2694 -96.3961 277° West 411 473 28,000  Level Minneapolis Center
Fri 07:48:28 PM 45.2831 -96.5564 277° West 410 472 28,000  Level Minneapolis Center
Fri 07:49:30 PM 45.2958 -96.7169 277° West 411 473 28,000 387 Level Minneapolis Center
Fri 07:50:32 PM 45.3089 -96.8781 277° West 414 476 28,800 919 Climbing Minneapolis Center
Fri 07:51:34 PM 45.3214 -97.0356 276° West 410 472 29,900 1,104 Climbing Minneapolis Center
Fri 07:52:37 PM 45.3369 -97.2236 277° West 404 465 31,100 1,008 Climbing Minneapolis Center
Fri 07:53:39 PM 45.3481 -97.3789 276° West 403 464 32,000 435 Climbing Minneapolis Center
Fri 07:54:41 PM 45.3600 -97.5356 276° West 402 463 32,000  Level Minneapolis Center
Fri 07:55:43 PM 45.3722 -97.6947 276° West 403 464 32,000  Level Minneapolis Center
Fri 07:56:45 PM 45.3836 -97.8517 276° West 403 464 32,000  Level Minneapolis Center
Fri 07:57:47 PM 45.3972 -98.0414 276° West 404 465 32,000  Level Minneapolis Center
Fri 07:58:49 PM 45.4058 -98.1797 275° West 404 465 32,000  Level Minneapolis Center
Fri 07:59:53 PM 45.4156 -98.3681 274° West 403 464 32,000  Level Minneapolis Center
Fri 08:00:55 PM 45.3758 -98.5183 249° West 402 463 32,000  Level Minneapolis Center
Fri 08:01:57 PM 45.3331 -98.6675 248° West 406 467 32,000  Level Minneapolis Center
Fri 08:02:59 PM 45.2903 -98.8161 248° West 406 467 32,000  Level Minneapolis Center
Fri 08:04:01 PM 45.2478 -98.9658 248° West 407 468 32,000  Level Minneapolis Center
Fri 08:05:03 PM 45.1953 -99.1433 247° West 407 468 32,000  Level Minneapolis Center
Fri 08:06:05 PM 45.1553 -99.2803 248° West 407 468 32,000  Level Minneapolis Center
Fri 08:07:07 PM 45.1047 -99.4517 247° West 407 468 32,000  Level Minneapolis Center
Fri 08:08:09 PM 45.0639 -99.5875 247° West 408 470 32,000  Level Minneapolis Center
Fri 08:09:11 PM 45.0197 -99.7347 247° West 407 468 32,000  Level Minneapolis Center
Fri 08:10:13 PM 44.9736 -99.8842 246° West 407 468 32,000  Level Minneapolis Center
Fri 08:11:15 PM 44.9269 -100.0375 247° West 413 475 32,000  Level Minneapolis Center
Fri 08:12:17 PM 44.8839 -100.1842 248° West 407 468 32,000  Level Minneapolis Center
Fri 08:13:19 PM 44.8319 -100.3567 247° West 403 464 32,000  Level Minneapolis Center
Fri 08:14:21 PM 44.7875 -100.5019 247° West 403 464 32,000  Level Minneapolis Center
Fri 08:15:24 PM 44.7431 -100.6461 247° West 403 464 32,000  Level Minneapolis Center
Fri 08:16:26 PM 44.6978 -100.7897 246° West 403 464 32,000  Level Minneapolis Center
Fri 08:17:28 PM 44.6525 -100.9344 246° West 403 464 32,000  Level Minneapolis Center
Fri 08:18:30 PM 44.6072 -101.0789 246° West 403 464 32,000  Level Minneapolis Center
Fri 08:19:32 PM 44.5628 -101.2208 246° West 403 464 32,000  Level Minneapolis Center
Fri 08:20:34 PM 44.5078 -101.3925 246° West 402 463 32,000  Level Minneapolis Center
Fri 08:21:36 PM 44.4628 -101.5336 246° West 402 463 32,000  Level Minneapolis Center
Fri 08:22:35 PM 44.4181 -101.6764 246° West 402 463 32,000  Level Denver Center
Fri 08:23:38 PM 44.3722 -101.8186 246° West 402 463 32,000  Level Denver Center
Fri 08:24:39 PM 44.3264 -101.9622 246° West 403 464 32,000  Level Denver Center
Fri 08:25:41 PM 44.2808 -102.1033 246° West 403 464 32,000 435 Level Denver Center
Fri 08:26:43 PM 44.2339 -102.2436 245° Southwest 402 463 32,900 1,016 Climbing Denver Center
Fri 08:27:45 PM 44.1811 -102.4092 246° West 393 452 34,100 1,056 Climbing Denver Center
Fri 08:28:48 PM 44.1356 -102.5433 245° Southwest 389 448 35,100 912 Climbing Denver Center
Fri 08:29:50 PM 44.0931 -102.6728 245° Southwest 380 437 36,000 435 Climbing Denver Center
Fri 08:30:52 PM 44.0419 -102.8194 244° Southwest 379 436 36,000  Level Denver Center
Fri 08:31:54 PM 43.9989 -102.9497 245° Southwest 381 438 36,000  Level Denver Center
Fri 08:32:56 PM 43.9528 -103.1036 247° West 386 444 36,000  Level Denver Center
Fri 08:33:58 PM 43.9194 -103.2400 251° West 386 444 36,000  Level Denver Center
Fri 08:35:00 PM 43.8794 -103.3989 251° West 388 447 36,000  Level Denver Center
Fri 08:36:02 PM 43.8431 -103.5314 249° West 388 447 36,000  Level Denver Center
Fri 08:37:04 PM 43.8031 -103.6892 251° West 389 448 36,000  Level Denver Center
Fri 08:38:06 PM 43.7692 -103.8247 251° West 390 449 36,000  Level Denver Center
Fri 08:39:09 PM 43.7267 -103.9792 249° West 389 448 36,000  Level Denver Center
Fri 08:40:11 PM 43.6911 -104.1125 250° West 388 447 36,000  Level Denver Center
Fri 08:41:13 PM 43.6567 -104.2444 250° West 387 445 36,000  Level Denver Center
Fri 08:42:15 PM 43.6147 -104.3994 250° West 387 445 36,000  Level Denver Center
Fri 08:43:17 PM 43.5794 -104.5319 250° West 387 445 36,000  Level Denver Center
Fri 08:44:19 PM 43.5375 -104.6858 249° West 386 444 36,000  Level Denver Center
Fri 08:45:21 PM 43.5014 -104.8183 249° West 386 444 36,000  Level Denver Center
Fri 08:46:23 PM 43.4761 -104.9792 258° West 387 445 36,000  Level Denver Center
Fri 08:47:25 PM 43.4475 -105.1106 253° West 383 441 36,000  Level Denver Center
Fri 08:48:27 PM 43.4103 -105.2661 252° West 383 441 36,000  Level Denver Center
Fri 08:49:29 PM 43.3906 -105.4025 259° West 383 441 36,000  Level Denver Center
Fri 08:50:31 PM 43.3653 -105.5647 258° West 385 443 36,000  Level Denver Center
Fri 08:51:33 PM 43.3442 -105.7033 258° West 387 445 36,000  Level Denver Center
Fri 08:52:35 PM 43.3181 -105.8672 258° West 392 451 36,000  Level Denver Center
Fri 08:53:37 PM 43.2972 -106.0067 258° West 393 452 36,000  Level Denver Center
Fri 08:54:39 PM 43.2717 -106.1692 258° West 392 451 36,000  Level Denver Center
Fri 08:55:41 PM 43.2511 -106.3081 259° West 391 450 36,000  Level Denver Center
Fri 08:56:43 PM 43.2231 -106.4711 257° West 393 452 36,000  Level Denver Center
Fri 08:57:45 PM 43.2031 -106.6125 259° West 394 453 36,000  Level Denver Center
Fri 08:58:47 PM 43.1750 -106.7750 257° West 395 455 36,000  Level Denver Center
Fri 08:59:49 PM 43.1528 -106.9133 258° West 391 450 36,000  Level Denver Center
Fri 09:00:50 PM 43.1267 -107.0761 258° West 392 451 36,000  Level Denver Center
Fri 09:01:52 PM 43.1019 -107.2181 257° West 397 457 36,000  Level Denver Center
Fri 09:02:54 PM 43.0753 -107.3761 257° West 396 456 36,000  Level Denver Center
Fri 09:03:56 PM 43.0503 -107.5225 257° West 396 456 36,000  Level Denver Center
Fri 09:04:58 PM 43.0264 -107.6667 257° West 395 455 36,000  Level Denver Center
Fri 09:06:27 PM 42.9903 -107.8711 256° West 394 453 36,000  Level Salt Lake Center
Fri 09:07:29 PM 42.9656 -108.0158 257° West 395 455 36,000  Level Salt Lake Center
Fri 09:08:31 PM 42.9381 -108.1747 257° West 394 453 36,000  Level Salt Lake Center
Fri 09:09:33 PM 42.9089 -108.3331 256° West 388 447 36,000  Level Salt Lake Center
Fri 09:10:34 PM 42.8853 -108.4733 257° West 395 455 36,000  Level Salt Lake Center
Fri 09:11:36 PM 42.8558 -108.6375 256° West 396 456 36,000  Level Salt Lake Center
Fri 09:12:38 PM 42.8308 -108.7756 256° West 396 456 36,000  Level Salt Lake Center
Fri 09:13:40 PM 42.8064 -108.9144 257° West 396 456 36,000  Level Salt Lake Center
Fri 09:14:41 PM 42.7753 -109.0800 256° West 400 460 36,000  Level Salt Lake Center
Fri 09:15:43 PM 42.7492 -109.2244 256° West 407 468 36,000  Level Salt Lake Center
Fri 09:16:45 PM 42.7183 -109.3867 256° West 401 461 36,000  Level Salt Lake Center
Fri 09:17:46 PM 42.6939 -109.5222 256° West 392 451 36,000  Level Salt Lake Center
Fri 09:18:48 PM 42.6625 -109.6833 255° West 393 452 36,000  Level Salt Lake Center
Fri 09:19:50 PM 42.6361 -109.8217 256° West 394 453 36,000  Level Salt Lake Center
Fri 09:20:51 PM 42.6058 -109.9817 256° West 394 453 36,000  Level Salt Lake Center
Fri 09:21:53 PM 42.5775 -110.1197 254° West 394 453 36,000  Level Salt Lake Center
Fri 09:22:54 PM 42.5575 -110.2597 259° West 395 455 36,000  Level Salt Lake Center
Fri 09:23:56 PM 42.5319 -110.4272 258° West 401 461 36,000  Level Salt Lake Center
Fri 09:24:58 PM 42.5100 -110.5694 258° West 403 464 36,000  Level Salt Lake Center
Fri 09:25:59 PM 42.4833 -110.7383 258° West 407 468 36,000  Level Salt Lake Center
Fri 09:27:01 PM 42.4617 -110.8814 258° West 408 470 36,000  Level Salt Lake Center
Fri 09:28:02 PM 42.4342 -111.0439 257° West 407 468 36,000  Level Salt Lake Center
Fri 09:29:04 PM 42.4114 -111.1933 258° West 407 468 36,000  Level Salt Lake Center
Fri 09:30:06 PM 42.3878 -111.3417 258° West 407 468 36,000  Level Salt Lake Center
Fri 09:31:07 PM 42.3628 -111.4894 257° West 406 467 36,000  Level Salt Lake Center
Fri 09:32:09 PM 42.3386 -111.6386 258° West 406 467 36,000  Level Salt Lake Center
Fri 09:33:10 PM 42.3144 -111.7856 258° West 406 467 36,000  Level Salt Lake Center
Fri 09:34:12 PM 42.2844 -111.9642 257° West 407 468 36,000  Level Salt Lake Center
Fri 09:35:13 PM 42.2586 -112.1125 257° West 407 468 36,000  Level Salt Lake Center
Fri 09:36:15 PM 42.2342 -112.2592 257° West 407 468 36,000  Level Salt Lake Center
Fri 09:37:17 PM 42.2089 -112.4047 257° West 405 466 36,000  Level Salt Lake Center
Fri 09:38:18 PM 42.1689 -112.5442 249° West 403 464 36,000  Level Salt Lake Center
Fri 09:39:20 PM 42.1236 -112.6772 245° Southwest 396 456 36,000  Level Salt Lake Center
Fri 09:40:21 PM 42.0778 -112.8139 246° West 399 459 36,000  Level Salt Lake Center
Fri 09:41:23 PM 42.0217 -112.9778 245° Southwest 401 461 36,000  Level Salt Lake Center
Fri 09:42:25 PM 41.9753 -113.1128 245° Southwest 401 461 36,000  Level Salt Lake Center
Fri 09:43:26 PM 41.9278 -113.2508 245° Southwest 404 465 36,000  Level Salt Lake Center
Fri 09:44:28 PM 41.8794 -113.3894 245° Southwest 408 470 36,000  Level Salt Lake Center
Fri 09:45:29 PM 41.8308 -113.5286 245° Southwest 411 473 36,000 341 Level Salt Lake Center
Fri 09:46:31 PM 41.7828 -113.6658 245° Southwest 411 473 36,700 871 Climbing Salt Lake Center
Fri 09:47:33 PM 41.7361 -113.8014 245° Southwest 407 468 37,800 634 Climbing Salt Lake Center
Fri 09:48:34 PM 41.6783 -113.9628 244° Southwest 406 467 38,000 98 Climbing Salt Lake Center
Fri 09:49:36 PM 41.6297 -114.0964 244° Southwest 406 467 38,000  Level Salt Lake Center
Fri 09:50:38 PM 41.5797 -114.2311 244° Southwest 406 467 38,000  Level Salt Lake Center
Fri 09:51:39 PM 41.5319 -114.3661 245° Southwest 405 466 38,000  Level Salt Lake Center
Fri 09:52:41 PM 41.4831 -114.5019 244° Southwest 405 466 38,000  Level Salt Lake Center
Fri 09:53:43 PM 41.4342 -114.6356 244° Southwest 405 466 38,000  Level Salt Lake Center
Fri 09:54:44 PM 41.3864 -114.7692 245° Southwest 405 466 38,000  Level Salt Lake Center
Fri 09:55:46 PM 41.3267 -114.9300 244° Southwest 405 466 38,000  Level Salt Lake Center
Fri 09:56:48 PM 41.2783 -115.0614 244° Southwest 402 463 38,000  Level Salt Lake Center
Fri 09:57:49 PM 41.2300 -115.1931 244° Southwest 399 459 38,000  Level Salt Lake Center
Fri 09:58:51 PM 41.1814 -115.3233 244° Southwest 399 459 38,000  Level Salt Lake Center
Fri 09:59:53 PM 41.1322 -115.4561 244° Southwest 399 459 38,000  Level Salt Lake Center
Fri 10:00:55 PM 41.0819 -115.5886 243° Southwest 399 459 38,000  Level Salt Lake Center
Fri 10:01:56 PM 41.0319 -115.7208 243° Southwest 399 459 38,000  Level Salt Lake Center
Fri 10:02:58 PM 40.9742 -115.8797 244° Southwest 399 459 38,000  Level Salt Lake Center
Fri 10:04:00 PM 40.9211 -116.0114 242° Southwest 400 460 38,000  Level Salt Lake Center
Fri 10:05:01 PM 40.8711 -116.1425 243° Southwest 403 464 38,000  Level Salt Lake Center
Fri 10:06:03 PM 40.8167 -116.2817 243° Southwest 402 463 38,000  Level Salt Lake Center
Fri 10:07:05 PM 40.7644 -116.4131 242° Southwest 403 464 38,000  Level Salt Lake Center
Fri 10:08:07 PM 40.7131 -116.5469 243° Southwest 405 466 38,000  Level Salt Lake Center
Fri 10:09:09 PM 40.6617 -116.6819 243° Southwest 411 473 38,000  Level Salt Lake Center
Fri 10:10:10 PM 40.6100 -116.8142 243° Southwest 410 472 38,000  Level Salt Lake Center
Fri 10:11:12 PM 40.5522 -116.9739 245° Southwest 408 470 38,000  Level Salt Lake Center
Fri 10:12:14 PM 40.5169 -117.1158 252° West 408 470 38,000  Level Salt Lake Center
Fri 10:13:16 PM 40.4808 -117.2594 252° West 410 472 38,000  Level Salt Lake Center
Fri 10:14:18 PM 40.4439 -117.3986 251° West 409 471 38,000  Level Salt Lake Center
Fri 10:15:20 PM 40.4075 -117.5381 251° West 409 471 38,000  Level Salt Lake Center
Fri 10:16:21 PM 40.3706 -117.6769 251° West 409 471 38,000  Level Salt Lake Center
Fri 10:17:23 PM 40.3331 -117.8172 251° West 408 470 38,000  Level Salt Lake Center
Fri 10:17:53 PM 40.3106 -117.8994 250° West 408 470 38,000  Level Oakland Center
Fri 10:18:55 PM 40.2711 -118.0367 249° West 407 468 38,000  Level Oakland Center
Fri 10:19:56 PM 40.2342 -118.1733 251° West 406 467 38,000  Level Oakland Center
Fri 10:20:29 PM 40.2108 -118.2550 250° West 406 467 38,000  Level Salt Lake Center
Fri 10:21:31 PM 40.1722 -118.3925 250° West 404 465 38,000  Level Salt Lake Center
Fri 10:22:32 PM 40.1339 -118.5281 250° West 404 465 38,000  Level Salt Lake Center
Fri 10:23:34 PM 40.0950 -118.6636 249° West 404 465 38,000  Level Salt Lake Center
Fri 10:24:36 PM 40.0483 -118.8267 250° West 404 465 38,000  Level Salt Lake Center
Fri 10:25:38 PM 40.0097 -118.9606 249° West 403 464 38,000  Level Salt Lake Center
Fri 10:26:40 PM 39.9697 -119.0972 249° West 403 464 38,000  Level Salt Lake Center
Fri 10:27:42 PM 39.9300 -119.2350 249° West 404 465 38,000  Level Salt Lake Center
Fri 10:28:44 PM 39.8894 -119.3728 249° West 407 468 38,000  Level Salt Lake Center
Fri 10:30:09 PM 39.8244 -119.5931 249° West 408 470 38,000  Level Oakland Center
Fri 10:31:10 PM 39.7831 -119.7314 249° West 411 473 38,000  Level Oakland Center
Fri 10:32:12 PM 39.7425 -119.8694 249° West 412 474 38,000  Level Oakland Center
Fri 10:33:13 PM 39.7022 -120.0042 249° West 410 472 38,000  Level Oakland Center
Fri 10:34:14 PM 39.6614 -120.1408 249° West 407 468 38,000  Level Oakland Center
Fri 10:35:15 PM 39.6197 -120.2772 248° West 408 470 38,000  Level Oakland Center
Fri 10:36:17 PM 39.5781 -120.4128 248° West 408 470 38,000  Level Oakland Center
Fri 10:37:18 PM 39.5364 -120.5469 248° West 407 468 38,000  Level Oakland Center
Fri 10:38:19 PM 39.4950 -120.6817 248° West 407 468 38,000  Level Oakland Center
Fri 10:39:21 PM 39.4447 -120.8464 248° West 408 470 38,000  Level Oakland Center
Fri 10:40:22 PM 39.4011 -120.9853 248° West 415 478 38,000  Level Oakland Center
Fri 10:41:23 PM 39.3583 -121.1225 248° West 416 479 38,000  Level Oakland Center
Fri 10:42:24 PM 39.3147 -121.2608 248° West 418 481 38,000 -732 Level Oakland Center
Fri 10:43:26 PM 39.2706 -121.4003 248° West 420 483 36,500 -1,707 Descending Oakland Center
Fri 10:44:27 PM 39.2264 -121.5417 248° West 424 488 34,500 -1,967 Descending Oakland Center
Fri 10:45:28 PM 39.1811 -121.6831 248° West 427 491 32,500 -1,967 Descending Oakland Center
Fri 10:46:29 PM 39.1342 -121.8297 248° West 441 507 30,500 -2,146 Descending Oakland Center
Fri 10:47:31 PM 39.0753 -122.0069 247° West 451 519 28,100 -2,146 Descending Oakland Center
Fri 10:48:32 PM 38.9917 -122.1192 226° Southwest 437 503 26,100 -1,967 Descending Oakland Center
Fri 10:49:33 PM 38.9031 -122.2231 222° Southwest 435 501 24,100 -1,918 Descending Oakland Center
Fri 10:50:34 PM 38.8147 -122.3261 222° Southwest 431 496 22,200 -1,902 Descending Oakland Center
Fri 10:51:36 PM 38.7269 -122.4264 222° Southwest 430 495 20,200 -1,951 Descending Oakland Center
Fri 10:52:37 PM 38.6450 -122.5183 221° Southwest 425 489 18,200 -1,967 Descending Oakland Center
Fri 10:53:38 PM 38.5400 -122.5394 189° South 390 449 16,200 -2,164 Descending Oakland Center
Fri 10:54:39 PM 38.4147 -122.5436 181° South 377 434 13,800 -2,164 Descending Oakland Center
Fri 10:55:40 PM 38.3153 -122.5467 181° South 364 419 11,800 -1,951 Descending Oakland Center
Fri 10:56:42 PM 38.2311 -122.5506 182° South 316 364 9,800 -1,854 Descending Oakland Center
Fri 10:57:43 PM 38.1481 -122.5531 181° South 302 348 8,000 -1,426 Descending Oakland Center
Fri 10:58:44 PM 38.0656 -122.5564 182° South 300 345 6,900 -541 Descending Oakland Center
Fri 10:59:45 PM 37.9872 -122.5489 176° South 285 328 6,900 -590 Level Oakland Center
Fri 11:00:46 PM 37.9325 -122.4836 137° Southeast 280 322 5,700 -976 Descending Oakland Center
Fri 11:01:48 PM 37.8914 -122.4067 124° Southeast 270 311 4,900 -404 Descending Oakland Center
Fri 11:02:30 PM 37.8667 -122.3500 119° Southeast 258 297 5,000 59 Climbing Northern Cal TRACON
Fri 11:03:30 PM 37.8167 -122.2667 127° Southeast 254 292 5,000 -300 Level Northern Cal TRACON
Fri 11:04:30 PM 37.7833 -122.2000 122° Southeast 254 292 4,400 -800 Descending Northern Cal TRACON
Fri 11:05:30 PM 37.7500 -122.1333 122° Southeast 225 259 3,400 -1,150 Descending Northern Cal TRACON
Fri 11:06:30 PM 37.7167 -122.1167 158° South 193 222 2,100 -1,350 Descending Northern Cal TRACON
Fri 11:07:30 PM 37.7167 -122.1667 270° West 136 157 700 -1,400 Descending Northern Cal TRACON
Fri 11:09:00 PM 37.7167 -122.2167 270° West  Level FlightAware Approximate

Login

Don't have an account? Register now (free) for customized features, flight alerts, and more!